sensor_id;sensor_type;location;lat;lon;timestamp;temperature;humidity
59311;DHT22;45078;51.654;21.250;2023-07-29T00:02:00;16.50;99.90
59311;DHT22;45078;51.654;21.250;2023-07-29T00:04:26;16.40;99.90
59311;DHT22;45078;51.654;21.250;2023-07-29T00:06:51;16.50;99.90
59311;DHT22;45078;51.654;21.250;2023-07-29T00:09:17;16.50;99.90
59311;DHT22;45078;51.654;21.250;2023-07-29T00:11:43;16.50;99.90
59311;DHT22;45078;51.654;21.250;2023-07-29T00:14:09;16.50;99.90
59311;DHT22;45078;51.654;21.250;2023-07-29T00:16:34;16.50;99.90
59311;DHT22;45078;51.654;21.250;2023-07-29T00:19:02;16.50;99.90
59311;DHT22;45078;51.654;21.250;2023-07-29T00:21:28;16.50;99.90
59311;DHT22;45078;51.654;21.250;2023-07-29T00:23:53;16.50;99.90
59311;DHT22;45078;51.654;21.250;2023-07-29T00:26:19;16.50;99.90
59311;DHT22;45078;51.654;21.250;2023-07-29T00:28:45;16.50;99.90
59311;DHT22;45078;51.654;21.250;2023-07-29T00:31:11;16.50;99.90
59311;DHT22;45078;51.654;21.250;2023-07-29T00:33:37;16.50;99.90
59311;DHT22;45078;51.654;21.250;2023-07-29T00:36:03;16.40;99.90
59311;DHT22;45078;51.654;21.250;2023-07-29T00:38:28;16.40;99.90
59311;DHT22;45078;51.654;21.250;2023-07-29T00:40:56;16.40;99.90
59311;DHT22;45078;51.654;21.250;2023-07-29T00:43:22;16.40;99.90
59311;DHT22;45078;51.654;21.250;2023-07-29T00:45:48;16.50;99.90
59311;DHT22;45078;51.654;21.250;2023-07-29T00:48:13;16.40;99.90
59311;DHT22;45078;51.654;21.250;2023-07-29T00:50:40;16.40;99.90
59311;DHT22;45078;51.654;21.250;2023-07-29T00:53:06;16.50;99.90
59311;DHT22;45078;51.654;21.250;2023-07-29T00:55:32;16.50;99.90
59311;DHT22;45078;51.654;21.250;2023-07-29T00:57:58;16.50;99.90
59311;DHT22;45078;51.654;21.250;2023-07-29T01:00:24;16.50;99.90
59311;DHT22;45078;51.654;21.250;2023-07-29T01:02:50;16.50;99.90
59311;DHT22;45078;51.654;21.250;2023-07-29T01:05:18;16.50;99.90
59311;DHT22;45078;51.654;21.250;2023-07-29T01:16:02;16.50;99.90
59311;DHT22;45078;51.654;21.250;2023-07-29T01:18:32;16.50;99.90
59311;DHT22;45078;51.654;21.250;2023-07-29T01:21:03;16.50;99.90
59311;DHT22;45078;51.654;21.250;2023-07-29T01:23:31;16.50;99.90
59311;DHT22;45078;51.654;21.250;2023-07-29T01:25:57;16.50;99.90
59311;DHT22;45078;51.654;21.250;2023-07-29T01:28:24;16.50;99.90
59311;DHT22;45078;51.654;21.250;2023-07-29T01:30:59;16.50;99.90
59311;DHT22;45078;51.654;21.250;2023-07-29T01:33:32;16.50;99.90
59311;DHT22;45078;51.654;21.250;2023-07-29T01:36:10;16.50;99.90
59311;DHT22;45078;51.654;21.250;2023-07-29T01:38:38;16.40;99.90
59311;DHT22;45078;51.654;21.250;2023-07-29T01:41:08;16.30;99.90
59311;DHT22;45078;51.654;21.250;2023-07-29T01:43:34;16.30;99.90
59311;DHT22;45078;51.654;21.250;2023-07-29T01:46:07;16.30;99.90
59311;DHT22;45078;51.654;21.250;2023-07-29T01:48:32;16.30;99.90
59311;DHT22;45078;51.654;21.250;2023-07-29T01:50:58;16.30;99.90
59311;DHT22;45078;51.654;21.250;2023-07-29T01:53:24;16.30;99.90
59311;DHT22;45078;51.654;21.250;2023-07-29T01:55:50;16.30;99.90
59311;DHT22;45078;51.654;21.250;2023-07-29T01:58:15;16.30;99.90
59311;DHT22;45078;51.654;21.250;2023-07-29T02:00:41;16.30;99.90
59311;DHT22;45078;51.654;21.250;2023-07-29T02:03:07;16.40;99.90
59311;DHT22;45078;51.654;21.250;2023-07-29T02:05:32;16.40;99.90
59311;DHT22;45078;51.654;21.250;2023-07-29T02:07:58;16.40;99.90
59311;DHT22;45078;51.654;21.250;2023-07-29T02:10:24;16.40;99.90
59311;DHT22;45078;51.654;21.250;2023-07-29T02:12:49;16.40;99.90
59311;DHT22;45078;51.654;21.250;2023-07-29T02:15:15;16.40;99.90
59311;DHT22;45078;51.654;21.250;2023-07-29T02:17:42;16.40;99.90
59311;DHT22;45078;51.654;21.250;2023-07-29T02:20:08;16.40;99.90
59311;DHT22;45078;51.654;21.250;2023-07-29T02:22:34;16.40;99.90
59311;DHT22;45078;51.654;21.250;2023-07-29T02:25:00;16.40;99.90
59311;DHT22;45078;51.654;21.250;2023-07-29T02:27:26;16.40;99.90
59311;DHT22;45078;51.654;21.250;2023-07-29T02:29:55;16.40;99.90
59311;DHT22;45078;51.654;21.250;2023-07-29T02:32:21;16.40;99.90
59311;DHT22;45078;51.654;21.250;2023-07-29T02:34:47;16.40;99.90
59311;DHT22;45078;51.654;21.250;2023-07-29T02:37:12;16.40;99.90
59311;DHT22;45078;51.654;21.250;2023-07-29T02:39:38;16.40;99.90
59311;DHT22;45078;51.654;21.250;2023-07-29T02:42:04;16.40;99.90
59311;DHT22;45078;51.654;21.250;2023-07-29T02:44:30;16.40;99.90
59311;DHT22;45078;51.654;21.250;2023-07-29T02:46:56;16.40;99.90
59311;DHT22;45078;51.654;21.250;2023-07-29T02:49:22;16.40;99.90
59311;DHT22;45078;51.654;21.250;2023-07-29T02:51:49;16.40;99.90
59311;DHT22;45078;51.654;21.250;2023-07-29T02:54:15;16.40;99.90
59311;DHT22;45078;51.654;21.250;2023-07-29T02:56:40;16.40;99.90
59311;DHT22;45078;51.654;21.250;2023-07-29T02:59:06;16.40;99.90
59311;DHT22;45078;51.654;21.250;2023-07-29T03:01:32;16.40;99.90
59311;DHT22;45078;51.654;21.250;2023-07-29T03:03:57;16.40;99.90
59311;DHT22;45078;51.654;21.250;2023-07-29T03:06:23;16.50;99.90
59311;DHT22;45078;51.654;21.250;2023-07-29T03:08:49;16.50;99.90
59311;DHT22;45078;51.654;21.250;2023-07-29T03:11:16;16.50;99.90
59311;DHT22;45078;51.654;21.250;2023-07-29T03:13:42;16.50;99.90
59311;DHT22;45078;51.654;21.250;2023-07-29T03:16:11;16.60;99.90
59311;DHT22;45078;51.654;21.250;2023-07-29T03:18:38;16.60;99.90
59311;DHT22;45078;51.654;21.250;2023-07-29T03:21:04;16.60;99.90
59311;DHT22;45078;51.654;21.250;2023-07-29T03:23:31;16.60;99.90
59311;DHT22;45078;51.654;21.250;2023-07-29T03:25:58;16.60;99.90
59311;DHT22;45078;51.654;21.250;2023-07-29T03:28:26;16.60;99.90
59311;DHT22;45078;51.654;21.250;2023-07-29T03:30:53;16.60;99.90
59311;DHT22;45078;51.654;21.250;2023-07-29T03:33:19;16.60;99.90
59311;DHT22;45078;51.654;21.250;2023-07-29T03:35:44;16.70;99.90
59311;DHT22;45078;51.654;21.250;2023-07-29T03:38:11;16.70;99.90
59311;DHT22;45078;51.654;21.250;2023-07-29T03:40:38;16.70;99.90
59311;DHT22;45078;51.654;21.250;2023-07-29T03:43:04;16.70;99.90
59311;DHT22;45078;51.654;21.250;2023-07-29T03:45:30;16.70;99.90
59311;DHT22;45078;51.654;21.250;2023-07-29T03:47:55;16.70;99.90
59311;DHT22;45078;51.654;21.250;2023-07-29T03:50:21;16.70;99.90
59311;DHT22;45078;51.654;21.250;2023-07-29T03:52:47;16.80;99.90
59311;DHT22;45078;51.654;21.250;2023-07-29T03:55:13;16.80;99.90
59311;DHT22;45078;51.654;21.250;2023-07-29T03:57:39;16.80;99.90
59311;DHT22;45078;51.654;21.250;2023-07-29T04:00:05;16.80;99.90
59311;DHT22;45078;51.654;21.250;2023-07-29T04:02:31;16.80;99.90
59311;DHT22;45078;51.654;21.250;2023-07-29T04:04:57;16.80;99.90
59311;DHT22;45078;51.654;21.250;2023-07-29T04:07:23;16.80;99.90
59311;DHT22;45078;51.654;21.250;2023-07-29T04:09:49;16.80;99.90
59311;DHT22;45078;51.654;21.250;2023-07-29T04:12:15;16.80;99.90
59311;DHT22;45078;51.654;21.250;2023-07-29T04:14:41;16.80;99.90
59311;DHT22;45078;51.654;21.250;2023-07-29T04:17:07;16.80;99.90
59311;DHT22;45078;51.654;21.250;2023-07-29T04:19:33;16.80;99.90
59311;DHT22;45078;51.654;21.250;2023-07-29T04:21:59;16.80;99.90
59311;DHT22;45078;51.654;21.250;2023-07-29T04:24:25;16.80;99.90
59311;DHT22;45078;51.654;21.250;2023-07-29T04:26:50;16.80;99.90
59311;DHT22;45078;51.654;21.250;2023-07-29T04:29:16;16.80;99.90
59311;DHT22;45078;51.654;21.250;2023-07-29T04:31:42;16.80;99.90
59311;DHT22;45078;51.654;21.250;2023-07-29T04:34:08;16.80;99.90
59311;DHT22;45078;51.654;21.250;2023-07-29T04:36:34;16.80;99.90
59311;DHT22;45078;51.654;21.250;2023-07-29T04:39:00;16.80;99.90
59311;DHT22;45078;51.654;21.250;2023-07-29T04:41:26;16.90;99.90
59311;DHT22;45078;51.654;21.250;2023-07-29T04:43:51;16.90;99.90
59311;DHT22;45078;51.654;21.250;2023-07-29T04:46:18;16.80;99.90
59311;DHT22;45078;51.654;21.250;2023-07-29T04:48:43;16.90;99.90
59311;DHT22;45078;51.654;21.250;2023-07-29T04:51:09;16.90;99.90
59311;DHT22;45078;51.654;21.250;2023-07-29T04:53:35;16.90;99.90
59311;DHT22;45078;51.654;21.250;2023-07-29T04:56:02;16.90;99.90
59311;DHT22;45078;51.654;21.250;2023-07-29T04:58:28;16.90;99.90
59311;DHT22;45078;51.654;21.250;2023-07-29T05:00:55;16.90;99.90
59311;DHT22;45078;51.654;21.250;2023-07-29T05:03:21;17.00;99.90
59311;DHT22;45078;51.654;21.250;2023-07-29T05:05:47;17.00;99.90
59311;DHT22;45078;51.654;21.250;2023-07-29T05:08:12;17.00;99.90
59311;DHT22;45078;51.654;21.250;2023-07-29T05:10:38;17.00;99.90
59311;DHT22;45078;51.654;21.250;2023-07-29T05:13:04;17.00;99.90
59311;DHT22;45078;51.654;21.250;2023-07-29T05:15:29;17.10;99.90
59311;DHT22;45078;51.654;21.250;2023-07-29T05:17:56;17.10;99.90
59311;DHT22;45078;51.654;21.250;2023-07-29T05:20:22;17.10;99.90
59311;DHT22;45078;51.654;21.250;2023-07-29T05:22:47;17.10;99.90
59311;DHT22;45078;51.654;21.250;2023-07-29T05:25:13;17.20;99.90
59311;DHT22;45078;51.654;21.250;2023-07-29T05:27:39;17.20;99.90
59311;DHT22;45078;51.654;21.250;2023-07-29T05:30:05;17.20;99.90
59311;DHT22;45078;51.654;21.250;2023-07-29T05:32:32;17.30;99.90
59311;DHT22;45078;51.654;21.250;2023-07-29T05:34:57;17.30;99.90
59311;DHT22;45078;51.654;21.250;2023-07-29T05:37:23;17.30;99.90
59311;DHT22;45078;51.654;21.250;2023-07-29T05:39:49;17.30;99.90
59311;DHT22;45078;51.654;21.250;2023-07-29T05:42:15;17.40;99.90
59311;DHT22;45078;51.654;21.250;2023-07-29T05:44:40;17.40;99.90
59311;DHT22;45078;51.654;21.250;2023-07-29T05:47:06;17.40;99.90
59311;DHT22;45078;51.654;21.250;2023-07-29T05:49:32;17.40;99.90
59311;DHT22;45078;51.654;21.250;2023-07-29T05:51:57;17.40;99.90
59311;DHT22;45078;51.654;21.250;2023-07-29T05:54:23;17.30;99.90
59311;DHT22;45078;51.654;21.250;2023-07-29T05:56:49;17.40;99.90
59311;DHT22;45078;51.654;21.250;2023-07-29T05:59:15;17.40;99.90
59311;DHT22;45078;51.654;21.250;2023-07-29T06:01:40;17.40;99.90
59311;DHT22;45078;51.654;21.250;2023-07-29T06:04:06;17.40;99.90
59311;DHT22;45078;51.654;21.250;2023-07-29T06:06:32;17.50;99.90
59311;DHT22;45078;51.654;21.250;2023-07-29T06:08:57;17.50;99.90
59311;DHT22;45078;51.654;21.250;2023-07-29T06:11:23;17.60;99.90
59311;DHT22;45078;51.654;21.250;2023-07-29T06:13:49;17.70;99.90
59311;DHT22;45078;51.654;21.250;2023-07-29T06:16:15;17.70;99.90
59311;DHT22;45078;51.654;21.250;2023-07-29T06:18:41;17.80;99.90
59311;DHT22;45078;51.654;21.250;2023-07-29T06:21:07;17.70;99.90
59311;DHT22;45078;51.654;21.250;2023-07-29T06:23:36;17.70;99.90
59311;DHT22;45078;51.654;21.250;2023-07-29T06:26:02;17.80;99.90
59311;DHT22;45078;51.654;21.250;2023-07-29T06:28:27;17.90;99.90
59311;DHT22;45078;51.654;21.250;2023-07-29T06:30:54;18.00;99.90
59311;DHT22;45078;51.654;21.250;2023-07-29T06:33:20;18.00;99.90
59311;DHT22;45078;51.654;21.250;2023-07-29T06:35:46;18.00;99.90
59311;DHT22;45078;51.654;21.250;2023-07-29T06:38:11;18.20;99.90
59311;DHT22;45078;51.654;21.250;2023-07-29T06:40:37;18.20;99.90
59311;DHT22;45078;51.654;21.250;2023-07-29T06:43:03;18.30;99.90
59311;DHT22;45078;51.654;21.250;2023-07-29T06:45:28;18.40;99.90
59311;DHT22;45078;51.654;21.250;2023-07-29T06:47:54;18.40;99.90
59311;DHT22;45078;51.654;21.250;2023-07-29T06:50:20;18.40;99.90
59311;DHT22;45078;51.654;21.250;2023-07-29T06:52:45;18.40;99.90
59311;DHT22;45078;51.654;21.250;2023-07-29T06:55:11;18.40;99.90
59311;DHT22;45078;51.654;21.250;2023-07-29T06:57:37;18.50;99.90
59311;DHT22;45078;51.654;21.250;2023-07-29T07:00:03;18.40;99.90
59311;DHT22;45078;51.654;21.250;2023-07-29T07:02:29;18.50;99.90
59311;DHT22;45078;51.654;21.250;2023-07-29T07:04:56;18.50;99.90
59311;DHT22;45078;51.654;21.250;2023-07-29T07:07:21;18.60;99.90
59311;DHT22;45078;51.654;21.250;2023-07-29T07:09:47;18.70;99.90
59311;DHT22;45078;51.654;21.250;2023-07-29T07:12:13;18.90;99.90
59311;DHT22;45078;51.654;21.250;2023-07-29T07:14:38;18.90;99.90
59311;DHT22;45078;51.654;21.250;2023-07-29T07:17:04;18.90;99.90
59311;DHT22;45078;51.654;21.250;2023-07-29T07:19:30;19.00;99.90
59311;DHT22;45078;51.654;21.250;2023-07-29T07:21:56;19.10;99.90
59311;DHT22;45078;51.654;21.250;2023-07-29T07:24:22;19.20;99.90
59311;DHT22;45078;51.654;21.250;2023-07-29T07:26:48;19.30;99.90
59311;DHT22;45078;51.654;21.250;2023-07-29T07:29:14;19.40;99.90
59311;DHT22;45078;51.654;21.250;2023-07-29T07:31:40;19.40;99.90
59311;DHT22;45078;51.654;21.250;2023-07-29T07:34:06;19.40;99.90
59311;DHT22;45078;51.654;21.250;2023-07-29T07:36:31;19.50;99.90
59311;DHT22;45078;51.654;21.250;2023-07-29T07:38:57;19.60;99.90
59311;DHT22;45078;51.654;21.250;2023-07-29T07:41:23;19.70;99.90
59311;DHT22;45078;51.654;21.250;2023-07-29T07:43:49;19.70;99.90
59311;DHT22;45078;51.654;21.250;2023-07-29T07:46:15;19.90;99.90
59311;DHT22;45078;51.654;21.250;2023-07-29T07:48:40;20.00;99.90
59311;DHT22;45078;51.654;21.250;2023-07-29T07:51:12;20.20;99.90
59311;DHT22;45078;51.654;21.250;2023-07-29T07:53:38;20.30;99.90
59311;DHT22;45078;51.654;21.250;2023-07-29T07:56:04;20.40;99.90
59311;DHT22;45078;51.654;21.250;2023-07-29T07:58:30;20.50;99.90
59311;DHT22;45078;51.654;21.250;2023-07-29T08:01:06;20.50;99.90
59311;DHT22;45078;51.654;21.250;2023-07-29T08:03:33;20.40;99.90
59311;DHT22;45078;51.654;21.250;2023-07-29T08:05:58;20.30;99.90
59311;DHT22;45078;51.654;21.250;2023-07-29T08:08:26;20.40;99.90
59311;DHT22;45078;51.654;21.250;2023-07-29T08:10:56;20.60;99.90
59311;DHT22;45078;51.654;21.250;2023-07-29T08:13:23;20.70;99.90
59311;DHT22;45078;51.654;21.250;2023-07-29T08:15:50;20.90;99.90
59311;DHT22;45078;51.654;21.250;2023-07-29T08:18:16;21.00;99.90
59311;DHT22;45078;51.654;21.250;2023-07-29T08:21:00;21.20;99.90
59311;DHT22;45078;51.654;21.250;2023-07-29T08:23:30;21.30;99.90
59311;DHT22;45078;51.654;21.250;2023-07-29T08:26:01;21.30;99.90
59311;DHT22;45078;51.654;21.250;2023-07-29T08:28:29;21.30;99.90
59311;DHT22;45078;51.654;21.250;2023-07-29T08:30:55;21.10;99.90
59311;DHT22;45078;51.654;21.250;2023-07-29T08:33:20;21.10;99.90
59311;DHT22;45078;51.654;21.250;2023-07-29T08:35:46;21.20;99.90
59311;DHT22;45078;51.654;21.250;2023-07-29T08:38:12;21.20;99.90
59311;DHT22;45078;51.654;21.250;2023-07-29T08:40:44;21.40;99.90
59311;DHT22;45078;51.654;21.250;2023-07-29T08:43:12;21.40;99.90
59311;DHT22;45078;51.654;21.250;2023-07-29T08:45:40;21.50;99.90
59311;DHT22;45078;51.654;21.250;2023-07-29T08:48:10;21.50;99.90
59311;DHT22;45078;51.654;21.250;2023-07-29T08:50:37;21.50;99.90
59311;DHT22;45078;51.654;21.250;2023-07-29T08:53:06;21.50;99.90
59311;DHT22;45078;51.654;21.250;2023-07-29T08:55:32;21.40;99.90
59311;DHT22;45078;51.654;21.250;2023-07-29T08:57:59;21.50;99.90
59311;DHT22;45078;51.654;21.250;2023-07-29T09:00:26;21.70;99.90
59311;DHT22;45078;51.654;21.250;2023-07-29T09:02:52;21.70;99.90
59311;DHT22;45078;51.654;21.250;2023-07-29T09:05:19;21.60;99.90
59311;DHT22;45078;51.654;21.250;2023-07-29T09:07:46;21.50;99.90
59311;DHT22;45078;51.654;21.250;2023-07-29T09:10:13;21.30;99.90
59311;DHT22;45078;51.654;21.250;2023-07-29T09:12:40;21.30;99.90
59311;DHT22;45078;51.654;21.250;2023-07-29T09:15:06;21.40;99.90
59311;DHT22;45078;51.654;21.250;2023-07-29T09:17:33;21.50;99.90
59311;DHT22;45078;51.654;21.250;2023-07-29T09:19:59;21.50;99.90
59311;DHT22;45078;51.654;21.250;2023-07-29T09:22:27;21.70;99.90
59311;DHT22;45078;51.654;21.250;2023-07-29T09:24:53;21.80;99.90
59311;DHT22;45078;51.654;21.250;2023-07-29T09:27:28;21.90;99.90
59311;DHT22;45078;51.654;21.250;2023-07-29T09:29:57;22.00;99.90
59311;DHT22;45078;51.654;21.250;2023-07-29T09:32:24;22.00;99.90
59311;DHT22;45078;51.654;21.250;2023-07-29T09:34:50;22.20;99.90
59311;DHT22;45078;51.654;21.250;2023-07-29T09:37:25;22.20;99.90
59311;DHT22;45078;51.654;21.250;2023-07-29T09:39:51;22.30;99.90
59311;DHT22;45078;51.654;21.250;2023-07-29T09:42:19;22.40;99.90
59311;DHT22;45078;51.654;21.250;2023-07-29T09:44:45;22.40;99.90
59311;DHT22;45078;51.654;21.250;2023-07-29T09:47:22;22.40;99.90
59311;DHT22;45078;51.654;21.250;2023-07-29T09:49:48;22.40;99.90
59311;DHT22;45078;51.654;21.250;2023-07-29T09:52:18;22.40;99.90
59311;DHT22;45078;51.654;21.250;2023-07-29T09:54:45;22.60;99.90
59311;DHT22;45078;51.654;21.250;2023-07-29T09:57:14;22.70;99.90
59311;DHT22;45078;51.654;21.250;2023-07-29T09:59:40;22.50;99.90
59311;DHT22;45078;51.654;21.250;2023-07-29T10:02:13;22.40;99.90
59311;DHT22;45078;51.654;21.250;2023-07-29T10:04:41;22.50;99.90
59311;DHT22;45078;51.654;21.250;2023-07-29T10:07:07;22.60;99.90
59311;DHT22;45078;51.654;21.250;2023-07-29T10:09:34;22.70;99.90
59311;DHT22;45078;51.654;21.250;2023-07-29T10:12:00;22.90;99.90
59311;DHT22;45078;51.654;21.250;2023-07-29T10:14:28;22.90;99.90
59311;DHT22;45078;51.654;21.250;2023-07-29T10:16:55;22.90;99.90
59311;DHT22;45078;51.654;21.250;2023-07-29T10:19:23;23.00;99.90
59311;DHT22;45078;51.654;21.250;2023-07-29T10:21:51;23.10;99.90
59311;DHT22;45078;51.654;21.250;2023-07-29T10:24:24;23.20;99.90
59311;DHT22;45078;51.654;21.250;2023-07-29T10:26:57;23.20;99.90
59311;DHT22;45078;51.654;21.250;2023-07-29T10:29:23;23.30;99.90
59311;DHT22;45078;51.654;21.250;2023-07-29T10:31:52;23.40;99.90
59311;DHT22;45078;51.654;21.250;2023-07-29T10:34:20;23.50;99.90
59311;DHT22;45078;51.654;21.250;2023-07-29T10:36:47;23.50;99.90
59311;DHT22;45078;51.654;21.250;2023-07-29T10:39:14;23.50;99.90
59311;DHT22;45078;51.654;21.250;2023-07-29T10:41:59;23.50;99.90
59311;DHT22;45078;51.654;21.250;2023-07-29T10:44:48;23.50;99.90
59311;DHT22;45078;51.654;21.250;2023-07-29T10:47:22;23.60;99.90
59311;DHT22;45078;51.654;21.250;2023-07-29T10:49:56;23.70;99.90
59311;DHT22;45078;51.654;21.250;2023-07-29T10:55:02;23.70;99.90
59311;DHT22;45078;51.654;21.250;2023-07-29T10:57:37;23.60;99.90
59311;DHT22;45078;51.654;21.250;2023-07-29T11:00:04;23.70;99.90
59311;DHT22;45078;51.654;21.250;2023-07-29T11:02:31;23.60;99.90
59311;DHT22;45078;51.654;21.250;2023-07-29T11:04:57;23.70;99.90
59311;DHT22;45078;51.654;21.250;2023-07-29T11:07:27;23.80;99.90
59311;DHT22;45078;51.654;21.250;2023-07-29T11:09:58;23.80;99.90
59311;DHT22;45078;51.654;21.250;2023-07-29T11:12:53;23.80;99.90
59311;DHT22;45078;51.654;21.250;2023-07-29T11:15:27;23.90;99.90
59311;DHT22;45078;51.654;21.250;2023-07-29T11:20:33;24.10;99.90
59311;DHT22;45078;51.654;21.250;2023-07-29T11:23:01;23.90;99.90
59311;DHT22;45078;51.654;21.250;2023-07-29T11:25:29;24.00;99.90
59311;DHT22;45078;51.654;21.250;2023-07-29T11:27:57;24.10;99.90
59311;DHT22;45078;51.654;21.250;2023-07-29T11:30:24;24.10;99.90
59311;DHT22;45078;51.654;21.250;2023-07-29T11:32:53;24.20;99.90
59311;DHT22;45078;51.654;21.250;2023-07-29T11:35:19;24.30;99.90
59311;DHT22;45078;51.654;21.250;2023-07-29T11:37:49;24.30;99.90
59311;DHT22;45078;51.654;21.250;2023-07-29T11:40:17;24.40;99.90
59311;DHT22;45078;51.654;21.250;2023-07-29T11:42:45;24.40;99.90
59311;DHT22;45078;51.654;21.250;2023-07-29T11:45:11;24.50;99.90
59311;DHT22;45078;51.654;21.250;2023-07-29T11:47:37;24.50;99.90
59311;DHT22;45078;51.654;21.250;2023-07-29T11:50:08;24.50;99.90
59311;DHT22;45078;51.654;21.250;2023-07-29T11:52:43;24.50;99.90
59311;DHT22;45078;51.654;21.250;2023-07-29T11:55:10;24.50;99.90
59311;DHT22;45078;51.654;21.250;2023-07-29T11:57:37;24.40;99.90
59311;DHT22;45078;51.654;21.250;2023-07-29T12:00:05;24.50;99.90
59311;DHT22;45078;51.654;21.250;2023-07-29T12:02:33;24.50;99.90
59311;DHT22;45078;51.654;21.250;2023-07-29T12:05:00;24.50;99.90
59311;DHT22;45078;51.654;21.250;2023-07-29T12:07:28;24.50;99.90
59311;DHT22;45078;51.654;21.250;2023-07-29T12:09:54;24.70;99.90
59311;DHT22;45078;51.654;21.250;2023-07-29T12:12:22;24.80;99.90
59311;DHT22;45078;51.654;21.250;2023-07-29T12:14:48;25.00;99.90
59311;DHT22;45078;51.654;21.250;2023-07-29T12:17:14;25.00;99.90
59311;DHT22;45078;51.654;21.250;2023-07-29T12:19:41;25.10;99.90
59311;DHT22;45078;51.654;21.250;2023-07-29T12:22:09;25.20;99.90
59311;DHT22;45078;51.654;21.250;2023-07-29T12:24:38;25.30;99.90
59311;DHT22;45078;51.654;21.250;2023-07-29T12:27:04;25.10;99.90
59311;DHT22;45078;51.654;21.250;2023-07-29T12:29:30;25.00;99.90
59311;DHT22;45078;51.654;21.250;2023-07-29T12:32:00;24.90;99.90
59311;DHT22;45078;51.654;21.250;2023-07-29T12:34:28;24.90;99.90
59311;DHT22;45078;51.654;21.250;2023-07-29T12:36:55;24.90;99.90
59311;DHT22;45078;51.654;21.250;2023-07-29T12:39:26;24.90;99.90
59311;DHT22;45078;51.654;21.250;2023-07-29T12:41:57;24.90;99.90
59311;DHT22;45078;51.654;21.250;2023-07-29T12:44:24;25.00;99.90
59311;DHT22;45078;51.654;21.250;2023-07-29T12:46:51;25.00;99.90
59311;DHT22;45078;51.654;21.250;2023-07-29T12:49:17;25.10;99.90
59311;DHT22;45078;51.654;21.250;2023-07-29T12:51:43;25.20;99.90
59311;DHT22;45078;51.654;21.250;2023-07-29T12:54:09;25.20;99.90
59311;DHT22;45078;51.654;21.250;2023-07-29T12:56:35;25.30;99.90
59311;DHT22;45078;51.654;21.250;2023-07-29T12:59:01;25.40;99.90
59311;DHT22;45078;51.654;21.250;2023-07-29T13:01:28;25.40;99.90
59311;DHT22;45078;51.654;21.250;2023-07-29T13:03:54;25.30;99.90
59311;DHT22;45078;51.654;21.250;2023-07-29T13:06:20;25.30;99.90
59311;DHT22;45078;51.654;21.250;2023-07-29T13:08:46;25.40;99.90
59311;DHT22;45078;51.654;21.250;2023-07-29T13:11:12;25.60;99.90
59311;DHT22;45078;51.654;21.250;2023-07-29T13:13:38;25.80;99.90
59311;DHT22;45078;51.654;21.250;2023-07-29T13:16:04;26.00;99.90
59311;DHT22;45078;51.654;21.250;2023-07-29T13:18:31;25.80;99.90
59311;DHT22;45078;51.654;21.250;2023-07-29T13:20:57;26.00;99.90
59311;DHT22;45078;51.654;21.250;2023-07-29T13:23:23;26.20;99.90
59311;DHT22;45078;51.654;21.250;2023-07-29T13:25:48;26.30;99.90
59311;DHT22;45078;51.654;21.250;2023-07-29T13:28:14;26.50;99.90
59311;DHT22;45078;51.654;21.250;2023-07-29T13:30:40;26.50;99.90
59311;DHT22;45078;51.654;21.250;2023-07-29T13:33:06;26.60;99.90
59311;DHT22;45078;51.654;21.250;2023-07-29T13:35:33;26.80;99.90
59311;DHT22;45078;51.654;21.250;2023-07-29T13:37:59;27.00;99.90
59311;DHT22;45078;51.654;21.250;2023-07-29T13:40:24;27.00;99.90
59311;DHT22;45078;51.654;21.250;2023-07-29T13:42:50;26.80;99.90
59311;DHT22;45078;51.654;21.250;2023-07-29T13:45:17;26.80;99.90
59311;DHT22;45078;51.654;21.250;2023-07-29T13:47:43;26.80;99.90
59311;DHT22;45078;51.654;21.250;2023-07-29T13:50:09;26.70;99.90
59311;DHT22;45078;51.654;21.250;2023-07-29T13:52:36;26.70;99.90
59311;DHT22;45078;51.654;21.250;2023-07-29T13:55:02;26.90;99.90
59311;DHT22;45078;51.654;21.250;2023-07-29T13:57:28;27.10;99.90
59311;DHT22;45078;51.654;21.250;2023-07-29T13:59:53;26.80;99.90
59311;DHT22;45078;51.654;21.250;2023-07-29T14:02:19;26.50;99.90
59311;DHT22;45078;51.654;21.250;2023-07-29T14:04:45;26.70;99.90
59311;DHT22;45078;51.654;21.250;2023-07-29T14:07:11;26.70;99.90
59311;DHT22;45078;51.654;21.250;2023-07-29T14:09:36;26.70;99.90
59311;DHT22;45078;51.654;21.250;2023-07-29T14:12:04;26.80;99.90
59311;DHT22;45078;51.654;21.250;2023-07-29T14:14:30;26.80;99.90
59311;DHT22;45078;51.654;21.250;2023-07-29T14:16:56;26.70;99.90
59311;DHT22;45078;51.654;21.250;2023-07-29T14:19:23;26.80;99.90
59311;DHT22;45078;51.654;21.250;2023-07-29T14:21:49;27.20;99.90
59311;DHT22;45078;51.654;21.250;2023-07-29T14:24:14;26.90;99.90
59311;DHT22;45078;51.654;21.250;2023-07-29T14:26:41;27.10;99.90
59311;DHT22;45078;51.654;21.250;2023-07-29T14:29:07;27.30;99.90
59311;DHT22;45078;51.654;21.250;2023-07-29T14:31:33;27.50;99.90
59311;DHT22;45078;51.654;21.250;2023-07-29T14:33:59;27.50;99.90
59311;DHT22;45078;51.654;21.250;2023-07-29T14:36:25;27.60;99.90
59311;DHT22;45078;51.654;21.250;2023-07-29T14:38:51;27.60;99.90
59311;DHT22;45078;51.654;21.250;2023-07-29T14:41:17;27.60;99.90
59311;DHT22;45078;51.654;21.250;2023-07-29T14:43:43;27.70;99.90
59311;DHT22;45078;51.654;21.250;2023-07-29T14:46:09;27.80;99.90
59311;DHT22;45078;51.654;21.250;2023-07-29T14:48:35;27.90;99.90
59311;DHT22;45078;51.654;21.250;2023-07-29T14:51:00;28.00;99.50
59311;DHT22;45078;51.654;21.250;2023-07-29T14:53:26;28.00;99.30
59311;DHT22;45078;51.654;21.250;2023-07-29T14:55:52;28.00;99.90
59311;DHT22;45078;51.654;21.250;2023-07-29T14:58:18;27.70;99.90
59311;DHT22;45078;51.654;21.250;2023-07-29T15:00:43;27.60;98.90
59311;DHT22;45078;51.654;21.250;2023-07-29T15:03:09;27.30;99.90
59311;DHT22;45078;51.654;21.250;2023-07-29T15:05:35;27.30;99.90
59311;DHT22;45078;51.654;21.250;2023-07-29T15:08:00;27.20;99.90
59311;DHT22;45078;51.654;21.250;2023-07-29T15:10:27;27.20;99.90
59311;DHT22;45078;51.654;21.250;2023-07-29T15:12:52;27.20;99.60
59311;DHT22;45078;51.654;21.250;2023-07-29T15:15:18;27.20;99.90
59311;DHT22;45078;51.654;21.250;2023-07-29T15:17:44;27.20;99.90
59311;DHT22;45078;51.654;21.250;2023-07-29T15:20:11;27.20;99.90
59311;DHT22;45078;51.654;21.250;2023-07-29T15:22:37;27.20;99.90
59311;DHT22;45078;51.654;21.250;2023-07-29T15:25:04;27.20;99.90
59311;DHT22;45078;51.654;21.250;2023-07-29T15:27:30;27.10;99.90